createdAt,value
2023-06-11T00:00:42.794Z,8.34
2023-06-11T00:01:42.882Z,8.41
2023-06-11T00:02:42.805Z,8.49
2023-06-11T00:03:42.874Z,8.48
2023-06-11T00:04:42.781Z,8.52
2023-06-11T00:05:42.740Z,8.46
2023-06-11T00:06:42.720Z,8.43
2023-06-11T00:07:42.734Z,8.30
2023-06-11T00:08:42.737Z,8.35
2023-06-11T00:09:42.721Z,8.29
2023-06-11T00:10:42.740Z,8.26
2023-06-11T00:11:42.806Z,8.16
2023-06-11T00:12:42.756Z,8.03
2023-06-11T00:13:42.751Z,7.95
2023-06-11T00:14:42.756Z,7.76
2023-06-11T00:15:42.785Z,7.86
2023-06-11T00:16:42.837Z,7.82
2023-06-11T00:17:42.885Z,7.76
2023-06-11T00:18:42.882Z,7.73
2023-06-11T00:19:42.825Z,7.69
2023-06-11T00:20:42.826Z,7.79
2023-06-11T00:21:42.869Z,7.87
2023-06-11T00:22:42.860Z,8.05
2023-06-11T00:23:42.907Z,8.06
2023-06-11T00:24:42.901Z,7.96
2023-06-11T00:25:42.914Z,7.84
2023-06-11T00:26:42.925Z,7.70
2023-06-11T00:27:42.917Z,7.70
2023-06-11T00:28:42.933Z,7.65
2023-06-11T00:29:42.949Z,7.78
2023-06-11T00:30:42.942Z,7.69
2023-06-11T00:31:43.012Z,7.76
2023-06-11T00:32:43.003Z,7.68
2023-06-11T00:33:42.997Z,7.53
2023-06-11T00:34:43.001Z,7.34
2023-06-11T00:35:42.993Z,7.29
2023-06-11T00:36:43.019Z,7.48
2023-06-11T00:37:43.035Z,7.84
2023-06-11T00:38:43.066Z,7.59
2023-06-11T00:39:43.056Z,7.22
2023-06-11T00:40:43.062Z,7.04
2023-06-11T00:41:43.073Z,6.82
2023-06-11T00:42:43.092Z,6.79
2023-06-11T00:43:43.086Z,6.76
2023-06-11T00:44:43.117Z,6.77
2023-06-11T00:45:43.148Z,6.73
2023-06-11T00:46:43.132Z,6.83
2023-06-11T00:47:43.218Z,6.86
2023-06-11T00:48:43.166Z,6.76
2023-06-11T00:49:43.167Z,6.84
2023-06-11T00:50:43.182Z,6.80
2023-06-11T00:51:43.194Z,6.82
2023-06-11T00:52:43.224Z,6.70
2023-06-11T00:53:43.225Z,6.79
2023-06-11T00:54:43.264Z,6.75
2023-06-11T00:55:43.259Z,6.77
2023-06-11T00:56:43.289Z,6.83
2023-06-11T00:57:43.285Z,6.79
2023-06-11T00:58:43.329Z,6.85
2023-06-11T00:59:43.315Z,6.88
2023-06-11T01:00:43.371Z,7.01
2023-06-11T01:01:43.414Z,6.99
2023-06-11T01:02:43.408Z,7.06
2023-06-11T01:03:43.368Z,7.05
2023-06-11T01:04:43.462Z,6.86
2023-06-11T01:05:43.435Z,6.82
2023-06-11T01:06:43.412Z,6.75
2023-06-11T01:07:43.427Z,6.70
2023-06-11T01:08:43.450Z,6.65
2023-06-11T01:09:43.468Z,6.77
2023-06-11T01:10:43.465Z,6.81
2023-06-11T01:11:43.468Z,6.83
2023-06-11T01:12:43.488Z,6.71
2023-06-11T01:13:43.502Z,6.70
2023-06-11T01:14:43.554Z,6.72
2023-06-11T01:15:43.542Z,6.78
2023-06-11T01:16:43.573Z,6.77
2023-06-11T01:17:43.641Z,6.80
2023-06-11T01:18:43.584Z,6.92
2023-06-11T01:19:43.605Z,6.81
2023-06-11T01:20:43.625Z,6.70
2023-06-11T01:21:43.624Z,6.74
2023-06-11T01:22:43.642Z,6.90
2023-06-11T01:23:43.691Z,7.02
2023-06-11T01:24:43.700Z,7.08
2023-06-11T01:25:43.677Z,7.18
2023-06-11T01:26:43.717Z,7.21
2023-06-11T01:27:43.718Z,7.24
2023-06-11T01:28:43.732Z,7.18
2023-06-11T01:29:43.775Z,7.11
2023-06-11T01:30:43.735Z,7.22
2023-06-11T01:31:43.881Z,7.28
2023-06-11T01:32:43.842Z,7.28
2023-06-11T01:33:43.791Z,7.28
2023-06-11T01:34:43.809Z,7.17
2023-06-11T01:35:43.812Z,7.14
2023-06-11T01:36:43.812Z,7.15
2023-06-11T01:37:43.840Z,7.00
2023-06-11T01:38:43.867Z,6.95
2023-06-11T01:39:43.850Z,6.97
2023-06-11T01:40:43.857Z,6.94
2023-06-11T01:41:43.876Z,6.94
2023-06-11T01:42:43.897Z,6.95
2023-06-11T01:43:43.878Z,6.86
2023-06-11T01:44:43.888Z,6.73
2023-06-11T01:45:43.925Z,6.88
2023-06-11T01:46:43.988Z,6.84
2023-06-11T01:47:43.954Z,6.72
2023-06-11T01:48:43.944Z,6.76
2023-06-11T01:49:43.942Z,6.85
2023-06-11T01:50:43.953Z,6.77
2023-06-11T01:51:43.968Z,6.97
2023-06-11T01:52:43.963Z,6.85
2023-06-11T01:53:44.013Z,6.76
2023-06-11T01:54:43.988Z,6.82
2023-06-11T01:55:44.101Z,6.78
2023-06-11T01:56:44.013Z,6.85
2023-06-11T01:57:44.006Z,6.87
2023-06-11T01:58:44.029Z,6.96
2023-06-11T01:59:44.028Z,7.08
2023-06-11T02:00:44.038Z,7.15
2023-06-11T02:01:44.140Z,7.19
2023-06-11T02:02:44.111Z,7.16
2023-06-11T02:03:44.168Z,7.23
2023-06-11T02:04:44.082Z,7.29
2023-06-11T02:05:44.094Z,7.33
2023-06-11T02:06:44.100Z,7.39
2023-06-11T02:07:44.118Z,7.39
2023-06-11T02:08:44.132Z,7.43
2023-06-11T02:09:44.139Z,7.40
2023-06-11T02:10:44.173Z,7.42
2023-06-11T02:11:44.155Z,7.51
2023-06-11T02:12:44.183Z,7.49
2023-06-11T02:13:44.190Z,7.38
2023-06-11T02:14:44.202Z,7.37
2023-06-11T02:15:44.224Z,7.30
2023-06-11T02:16:44.272Z,7.31
2023-06-11T02:17:44.278Z,7.41
2023-06-11T02:18:44.252Z,7.26
2023-06-11T02:19:44.259Z,7.33
2023-06-11T02:20:44.267Z,7.22
2023-06-11T02:21:44.314Z,7.23
2023-06-11T02:22:44.318Z,7.19
2023-06-11T02:23:44.359Z,7.14
2023-06-11T02:24:44.361Z,7.14
2023-06-11T02:25:44.366Z,7.05
2023-06-11T02:26:44.380Z,6.96
2023-06-11T02:27:44.383Z,7.06
2023-06-11T02:28:44.421Z,6.85
2023-06-11T02:29:44.433Z,6.89
2023-06-11T02:30:44.462Z,6.77
2023-06-11T02:31:44.480Z,6.78
2023-06-11T02:32:44.554Z,6.78
2023-06-11T02:33:44.478Z,6.55
2023-06-11T02:34:44.520Z,6.56
2023-06-11T02:35:44.546Z,6.56
2023-06-11T02:36:44.507Z,6.49
2023-06-11T02:37:44.541Z,6.39
2023-06-11T02:38:44.550Z,6.35
2023-06-11T02:39:44.560Z,6.41
2023-06-11T02:40:44.554Z,6.24
2023-06-11T02:41:44.570Z,6.06
2023-06-11T02:42:44.576Z,6.06
2023-06-11T02:43:44.619Z,6.11
2023-06-11T02:44:44.645Z,6.13
2023-06-11T02:45:44.649Z,6.11
2023-06-11T02:46:44.671Z,6.15
2023-06-11T02:47:44.681Z,6.24
2023-06-11T02:48:44.693Z,6.25
2023-06-11T02:49:44.692Z,6.29
2023-06-11T02:50:44.722Z,6.20
2023-06-11T02:51:44.727Z,6.18
2023-06-11T02:52:44.740Z,6.05
2023-06-11T02:53:44.762Z,6.06
2023-06-11T02:54:44.789Z,6.00
2023-06-11T02:55:44.770Z,6.11
2023-06-11T02:56:44.814Z,6.12
2023-06-11T02:57:44.813Z,6.13
2023-06-11T02:58:44.830Z,6.08
2023-06-11T02:59:44.842Z,5.98
2023-06-11T03:00:44.842Z,5.93
2023-06-11T03:01:44.940Z,6.08
2023-06-11T03:02:44.903Z,6.09
2023-06-11T03:03:44.931Z,6.08
2023-06-11T03:04:44.915Z,5.98
2023-06-11T03:05:44.925Z,6.00
2023-06-11T03:06:44.937Z,5.97
2023-06-11T03:07:44.953Z,6.03
2023-06-11T03:08:44.981Z,6.03
2023-06-11T03:09:44.972Z,6.09
2023-06-11T03:10:45.000Z,6.10
2023-06-11T03:11:45.037Z,6.12
2023-06-11T03:12:45.025Z,6.07
2023-06-11T03:13:45.035Z,6.10
2023-06-11T03:14:45.049Z,6.09
2023-06-11T03:15:45.087Z,6.14
2023-06-11T03:16:45.074Z,6.12
2023-06-11T03:17:45.119Z,6.10
2023-06-11T03:18:45.107Z,6.14
2023-06-11T03:19:45.112Z,6.17
2023-06-11T03:20:45.131Z,6.14
2023-06-11T03:21:45.159Z,6.18
2023-06-11T03:22:45.172Z,6.14
2023-06-11T03:23:45.220Z,6.17
2023-06-11T03:24:45.209Z,6.23
2023-06-11T03:25:45.244Z,6.31
2023-06-11T03:26:45.238Z,6.34
2023-06-11T03:27:45.255Z,6.25
2023-06-11T03:28:45.297Z,6.24
2023-06-11T03:29:45.314Z,6.13
2023-06-11T03:30:45.345Z,6.07
2023-06-11T03:31:45.378Z,6.10
2023-06-11T03:32:45.388Z,6.15
2023-06-11T03:33:45.391Z,6.13
2023-06-11T03:34:45.413Z,6.13
2023-06-11T03:35:45.431Z,6.15
2023-06-11T03:36:45.466Z,6.23
2023-06-11T03:37:45.476Z,6.31
2023-06-11T03:38:45.506Z,6.28
2023-06-11T03:39:45.520Z,6.21
2023-06-11T03:40:45.532Z,6.21
2023-06-11T03:41:45.562Z,6.24
2023-06-11T03:42:45.555Z,6.22
2023-06-11T03:43:45.591Z,6.28
2023-06-11T03:44:45.617Z,6.33
2023-06-11T03:45:45.648Z,6.28
2023-06-11T03:46:45.716Z,6.30
2023-06-11T03:47:45.712Z,6.22
2023-06-11T03:48:45.683Z,6.15
2023-06-11T03:49:45.724Z,6.05
2023-06-11T03:50:45.767Z,6.12
2023-06-11T03:51:45.749Z,6.09
2023-06-11T03:52:45.777Z,6.01
2023-06-11T03:53:45.803Z,6.08
2023-06-11T03:54:45.828Z,6.12
2023-06-11T03:55:45.851Z,6.07
2023-06-11T03:56:45.867Z,6.07
2023-06-11T03:57:45.884Z,5.98
2023-06-11T03:58:45.893Z,6.01
2023-06-11T03:59:45.930Z,6.03
2023-06-11T04:00:45.942Z,5.93
2023-06-11T04:01:46.006Z,6.03
2023-06-11T04:02:46.090Z,6.04
2023-06-11T04:03:46.049Z,5.96
2023-06-11T04:04:46.098Z,5.87
2023-06-11T04:05:46.069Z,5.92
2023-06-11T04:06:46.094Z,5.88
2023-06-11T04:07:46.133Z,5.86
2023-06-11T04:08:46.169Z,5.90
2023-06-11T04:09:46.194Z,5.87
2023-06-11T04:10:46.248Z,5.80
2023-06-11T04:11:46.251Z,5.76
2023-06-11T04:12:46.263Z,5.89
2023-06-11T04:13:46.306Z,5.85
2023-06-11T04:14:46.321Z,5.93
2023-06-11T04:15:46.373Z,5.85
2023-06-11T04:16:46.430Z,5.91
2023-06-11T04:17:46.464Z,5.87
2023-06-11T04:18:46.454Z,5.87
2023-06-11T04:19:46.486Z,5.93
2023-06-11T04:20:46.503Z,6.00
2023-06-11T04:21:46.529Z,5.97
2023-06-11T04:22:46.579Z,5.93
2023-06-11T04:23:46.645Z,5.93
2023-06-11T04:24:46.629Z,5.93
2023-06-11T04:25:46.635Z,5.92
2023-06-11T04:26:46.694Z,5.94
2023-06-11T04:27:46.687Z,6.00
2023-06-11T04:28:46.741Z,5.95
2023-06-11T04:29:46.757Z,5.84
2023-06-11T04:30:46.785Z,5.82
2023-06-11T04:31:46.914Z,5.78
2023-06-11T04:32:46.890Z,5.72
2023-06-11T04:33:46.861Z,5.70
2023-06-11T04:34:46.873Z,5.75
2023-06-11T04:35:46.903Z,5.65
2023-06-11T04:36:46.952Z,5.57
2023-06-11T04:37:46.979Z,5.61
2023-06-11T04:38:46.983Z,5.68
2023-06-11T04:39:47.009Z,5.55
2023-06-11T04:40:47.059Z,5.55
2023-06-11T04:41:47.073Z,5.52
2023-06-11T04:42:47.094Z,5.54
2023-06-11T04:43:47.112Z,5.41
2023-06-11T04:44:47.157Z,5.30
2023-06-11T04:45:47.171Z,5.27
2023-06-11T04:46:47.306Z,5.34
2023-06-11T04:47:47.284Z,5.44
2023-06-11T04:48:47.245Z,5.41
2023-06-11T04:49:47.269Z,5.42
2023-06-11T04:50:47.295Z,5.44
2023-06-11T04:51:47.301Z,5.45
2023-06-11T04:52:47.324Z,5.50
2023-06-11T04:53:47.363Z,5.61
2023-06-11T04:54:47.376Z,5.58
2023-06-11T04:55:47.410Z,5.46
2023-06-11T04:56:47.438Z,5.53
2023-06-11T04:57:47.448Z,5.58
2023-06-11T04:58:47.465Z,5.59
2023-06-11T04:59:47.510Z,5.60
2023-06-11T05:00:47.551Z,5.60
2023-06-11T05:01:47.763Z,5.65
2023-06-11T05:02:47.590Z,5.59
2023-06-11T05:03:49.166Z,5.59
2023-06-11T05:04:47.654Z,5.62
2023-06-11T05:05:47.719Z,5.60
2023-06-11T05:06:47.663Z,5.59
2023-06-11T05:07:47.680Z,5.59
2023-06-11T05:08:47.707Z,5.59
2023-06-11T05:09:47.744Z,5.52
2023-06-11T05:10:47.762Z,5.58
2023-06-11T05:11:47.786Z,5.56
2023-06-11T05:12:47.829Z,5.47
2023-06-11T05:13:47.837Z,5.39
2023-06-11T05:14:47.845Z,5.48
2023-06-11T05:15:47.866Z,5.44
2023-06-11T05:16:47.985Z,5.48
2023-06-11T05:17:48.964Z,5.43
2023-06-11T05:18:47.957Z,5.40
2023-06-11T05:19:47.986Z,5.45
2023-06-11T05:20:47.993Z,5.52
2023-06-11T05:21:48.021Z,5.59
2023-06-11T05:22:48.051Z,5.57
2023-06-11T05:23:48.092Z,5.47
2023-06-11T05:24:48.078Z,5.41
2023-06-11T05:25:48.115Z,5.35
2023-06-11T05:26:48.144Z,5.36
2023-06-11T05:27:48.164Z,5.36
2023-06-11T05:28:48.180Z,5.40
2023-06-11T05:29:48.210Z,5.48
2023-06-11T05:30:48.226Z,5.54
2023-06-11T05:31:48.280Z,5.56
2023-06-11T05:32:48.287Z,5.62
2023-06-11T05:33:48.328Z,5.57
2023-06-11T05:34:48.317Z,5.55
2023-06-11T05:35:48.320Z,5.43
2023-06-11T05:36:48.339Z,5.38
2023-06-11T05:37:48.356Z,5.40
2023-06-11T05:38:48.395Z,5.36
2023-06-11T05:39:48.443Z,5.33
2023-06-11T05:40:48.448Z,5.36
2023-06-11T05:41:48.468Z,5.30
2023-06-11T05:42:48.510Z,5.28
2023-06-11T05:43:48.520Z,5.24
2023-06-11T05:44:48.546Z,5.27
2023-06-11T05:45:48.598Z,5.35
2023-06-11T05:46:48.656Z,5.32
2023-06-11T05:47:48.706Z,5.39
2023-06-11T05:48:48.598Z,5.40
2023-06-11T05:49:48.629Z,5.51
2023-06-11T05:50:48.675Z,5.47
2023-06-11T05:51:48.651Z,5.39
2023-06-11T05:52:48.687Z,5.31
2023-06-11T05:53:48.690Z,5.28
2023-06-11T05:54:48.704Z,5.26
2023-06-11T05:55:48.730Z,5.19
2023-06-11T05:56:48.746Z,5.17
2023-06-11T05:57:48.739Z,5.17
2023-06-11T05:58:48.765Z,5.21
2023-06-11T05:59:48.815Z,5.18
2023-06-11T06:00:48.775Z,5.20
2023-06-11T06:01:48.782Z,5.25
2023-06-11T06:02:48.971Z,5.26
2023-06-11T06:03:48.893Z,5.30
2023-06-11T06:04:48.886Z,5.23
2023-06-11T06:05:48.841Z,5.16
2023-06-11T06:06:48.833Z,5.02
2023-06-11T06:07:48.844Z,4.88
2023-06-11T06:08:48.858Z,4.85
2023-06-11T06:09:48.853Z,4.75
2023-06-11T06:10:48.861Z,4.82
2023-06-11T06:11:48.860Z,5.00
2023-06-11T06:12:48.881Z,5.09
2023-06-11T06:13:48.859Z,5.21
2023-06-11T06:14:48.877Z,5.37
2023-06-11T06:15:48.948Z,5.56
2023-06-11T06:16:48.992Z,5.80
2023-06-11T06:17:48.914Z,6.10
2023-06-11T06:18:48.906Z,6.41
2023-06-11T06:19:48.897Z,6.54
2023-06-11T06:20:48.912Z,6.59
2023-06-11T06:21:48.926Z,6.67
2023-06-11T06:22:48.914Z,6.67
2023-06-11T06:23:48.967Z,6.65
2023-06-11T06:24:48.951Z,6.69
2023-06-11T06:25:48.976Z,6.66
2023-06-11T06:26:48.923Z,6.64
2023-06-11T06:27:48.929Z,6.58
2023-06-11T06:28:48.940Z,6.49
2023-06-11T06:29:48.923Z,6.49
2023-06-11T06:30:48.946Z,6.46
2023-06-11T06:31:48.958Z,6.43
2023-06-11T06:32:48.991Z,6.41
2023-06-11T06:33:48.916Z,6.36
2023-06-11T06:34:48.920Z,6.33
2023-06-11T06:35:48.928Z,6.33
2023-06-11T06:36:48.945Z,6.29
2023-06-11T06:37:48.929Z,6.23
2023-06-11T06:38:48.943Z,6.15
2023-06-11T06:39:48.948Z,6.21
2023-06-11T06:40:48.946Z,6.18
2023-06-11T06:41:48.951Z,6.13
2023-06-11T06:42:48.943Z,6.12
2023-06-11T06:43:50.295Z,6.09
2023-06-11T06:44:49.016Z,6.09
2023-06-11T06:45:49.023Z,6.03
2023-06-11T06:46:49.020Z,5.99
2023-06-11T06:47:49.133Z,5.96
2023-06-11T06:48:49.155Z,5.96
2023-06-11T06:49:49.012Z,5.89
2023-06-11T06:50:49.003Z,5.86
2023-06-11T06:51:48.994Z,5.76
2023-06-11T06:52:49.012Z,5.76
2023-06-11T06:53:49.004Z,5.68
2023-06-11T06:54:49.012Z,5.63
2023-06-11T06:55:51.360Z,5.58
2023-06-11T06:56:48.977Z,5.58
2023-06-11T06:57:48.970Z,5.59
2023-06-11T06:58:48.976Z,5.60
2023-06-11T06:59:48.964Z,5.58
2023-06-11T07:00:49.032Z,5.53
2023-06-11T07:01:49.090Z,5.52
2023-06-11T07:02:48.994Z,5.50
2023-06-11T07:03:48.946Z,5.38
2023-06-11T07:04:48.948Z,5.40
2023-06-11T07:05:48.964Z,5.38
2023-06-11T07:06:48.921Z,5.35
2023-06-11T07:07:48.917Z,5.32
2023-06-11T07:08:48.913Z,5.30
2023-06-11T07:09:48.885Z,5.23
2023-06-11T07:10:48.897Z,5.23
2023-06-11T07:11:48.887Z,5.22
2023-06-11T07:12:48.876Z,5.20
2023-06-11T07:13:48.853Z,5.12
2023-06-11T07:14:48.889Z,5.12
2023-06-11T07:15:48.957Z,5.14
2023-06-11T07:16:48.850Z,5.02
2023-06-11T07:17:48.841Z,5.11
2023-06-11T07:18:48.841Z,5.00
2023-06-11T07:19:48.920Z,5.04
2023-06-11T07:20:48.815Z,4.98
2023-06-11T07:21:48.817Z,4.89
2023-06-11T07:22:48.808Z,4.97
2023-06-11T07:23:48.885Z,4.94
2023-06-11T07:24:48.796Z,4.87
2023-06-11T07:25:48.805Z,4.86
2023-06-11T07:26:48.773Z,4.83
2023-06-11T07:27:48.769Z,4.83
2023-06-11T07:28:48.765Z,4.81
2023-06-11T07:29:48.746Z,4.79
2023-06-11T07:30:48.754Z,4.80
2023-06-11T07:31:48.889Z,4.76
2023-06-11T07:32:48.857Z,4.73
2023-06-11T07:33:48.716Z,4.73
2023-06-11T07:34:48.752Z,4.71
2023-06-11T07:35:48.706Z,4.71
2023-06-11T07:36:48.716Z,4.71
2023-06-11T07:37:48.713Z,4.72
2023-06-11T07:38:48.715Z,4.62
2023-06-11T07:39:49.381Z,4.61
2023-06-11T07:40:48.666Z,4.59
2023-06-11T07:41:48.679Z,4.55
2023-06-11T07:42:48.658Z,4.53
2023-06-11T07:43:48.653Z,4.54
2023-06-11T07:44:48.648Z,4.58
2023-06-11T07:45:48.647Z,4.49
2023-06-11T07:46:48.706Z,4.49
2023-06-11T07:47:48.749Z,4.48
2023-06-11T07:48:48.628Z,4.48
2023-06-11T07:49:48.654Z,4.36
2023-06-11T07:50:48.597Z,4.41
2023-06-11T07:51:48.592Z,4.42
2023-06-11T07:52:48.610Z,4.38
2023-06-11T07:53:48.591Z,4.46
2023-06-11T07:54:48.570Z,4.42
2023-06-11T07:55:48.569Z,4.41
2023-06-11T07:56:48.575Z,4.40
2023-06-11T07:57:48.564Z,4.40
2023-06-11T07:58:48.573Z,4.38
2023-06-11T07:59:48.537Z,4.35
2023-06-11T08:00:48.534Z,4.33
2023-06-11T08:01:48.639Z,4.35
2023-06-11T08:02:50.169Z,4.28
2023-06-11T08:03:48.524Z,4.35
2023-06-11T08:04:48.498Z,4.25
2023-06-11T08:05:48.571Z,4.29
2023-06-11T08:06:48.485Z,4.29
2023-06-11T08:07:48.497Z,4.30
2023-06-11T08:08:48.475Z,4.29
2023-06-11T08:09:48.483Z,4.31
2023-06-11T08:10:48.481Z,4.27
2023-06-11T08:11:48.469Z,4.23
2023-06-11T08:12:48.483Z,4.19
2023-06-11T08:13:48.459Z,4.23
2023-06-11T08:14:48.445Z,4.24
2023-06-11T08:15:48.432Z,4.17
2023-06-11T08:16:48.435Z,4.12
2023-06-11T08:17:48.441Z,4.12
2023-06-11T08:18:48.424Z,4.12
2023-06-11T08:19:48.415Z,4.12
2023-06-11T08:20:48.418Z,4.14
2023-06-11T08:21:48.431Z,4.14
2023-06-11T08:22:48.396Z,4.03
2023-06-11T08:23:48.413Z,4.09
2023-06-11T08:24:48.366Z,4.10
2023-06-11T08:25:48.380Z,4.03
2023-06-11T08:26:48.374Z,4.14
2023-06-11T08:27:48.362Z,4.10
2023-06-11T08:28:48.354Z,4.12
2023-06-11T08:29:48.339Z,4.12
2023-06-11T08:30:48.374Z,4.05
2023-06-11T08:31:48.371Z,4.02
2023-06-11T08:32:48.358Z,3.99
2023-06-11T08:33:48.327Z,4.09
2023-06-11T08:34:48.328Z,4.04
2023-06-11T08:35:48.321Z,3.99
2023-06-11T08:36:48.314Z,4.00
2023-06-11T08:37:48.289Z,3.97
2023-06-11T08:38:48.315Z,4.01
2023-06-11T08:39:48.293Z,4.02
2023-06-11T08:40:48.277Z,4.01
2023-06-11T08:41:48.285Z,4.03
2023-06-11T08:42:48.313Z,4.00
2023-06-11T08:43:48.270Z,4.00
2023-06-11T08:44:48.262Z,4.00
2023-06-11T08:45:48.257Z,3.94
2023-06-11T08:46:48.401Z,3.93
2023-06-11T08:47:48.247Z,3.91
2023-06-11T08:48:48.232Z,3.94
2023-06-11T08:49:48.225Z,3.92
2023-06-11T08:50:48.212Z,3.93
2023-06-11T08:51:48.226Z,3.92
2023-06-11T08:52:48.201Z,3.82
2023-06-11T08:53:48.192Z,3.87
2023-06-11T08:54:48.177Z,3.89
2023-06-11T08:55:48.182Z,3.88
2023-06-11T08:56:48.167Z,3.76
2023-06-11T08:57:48.169Z,3.77
2023-06-11T08:58:48.151Z,3.79
2023-06-11T08:59:48.150Z,3.77
2023-06-11T09:00:49.096Z,3.77
2023-06-11T09:01:48.177Z,3.63
2023-06-11T09:02:48.171Z,3.68
2023-06-11T09:03:48.170Z,3.69
2023-06-11T09:04:48.125Z,3.70
2023-06-11T09:05:48.106Z,3.68
2023-06-11T09:06:48.094Z,3.66
2023-06-11T09:07:48.084Z,3.63
2023-06-11T09:08:48.094Z,3.58
2023-06-11T09:09:48.089Z,3.62
2023-06-11T09:10:48.072Z,3.61
2023-06-11T09:11:48.062Z,3.54
2023-06-11T09:12:48.075Z,3.58
2023-06-11T09:13:48.052Z,3.55
2023-06-11T09:14:48.036Z,3.47
2023-06-11T09:15:48.091Z,3.46
2023-06-11T09:16:48.130Z,3.43
2023-06-11T09:17:48.148Z,3.42
2023-06-11T09:18:48.011Z,3.39
2023-06-11T09:19:48.020Z,3.39
2023-06-11T09:20:48.007Z,3.37
2023-06-11T09:21:48.003Z,3.39
2023-06-11T09:22:48.008Z,3.36
2023-06-11T09:23:48.039Z,3.36
2023-06-11T09:24:47.982Z,3.30
2023-06-11T09:25:47.967Z,3.35
2023-06-11T09:26:47.994Z,3.31
2023-06-11T09:27:48.129Z,3.32
2023-06-11T09:28:50.163Z,3.30
2023-06-11T09:29:48.024Z,3.34
2023-06-11T09:30:48.080Z,3.33
2023-06-11T09:31:48.052Z,3.30
2023-06-11T09:32:48.193Z,3.23
2023-06-11T09:33:48.050Z,3.22
2023-06-11T09:34:48.073Z,3.17
2023-06-11T09:35:48.102Z,3.21
2023-06-11T09:36:48.140Z,3.23
2023-06-11T09:37:48.139Z,3.19
2023-06-11T09:38:48.145Z,3.10
2023-06-11T09:39:48.163Z,3.06
2023-06-11T09:40:48.165Z,3.07
2023-06-11T09:41:48.177Z,3.09
2023-06-11T09:42:48.209Z,3.06
2023-06-11T09:43:48.234Z,3.09
2023-06-11T09:44:48.242Z,3.03
2023-06-11T09:45:48.333Z,3.03
2023-06-11T09:46:48.272Z,3.06
2023-06-11T09:47:48.374Z,3.02
2023-06-11T09:48:48.321Z,3.01
2023-06-11T09:49:48.349Z,3.03
2023-06-11T09:50:48.347Z,2.97
2023-06-11T09:51:48.341Z,3.04
2023-06-11T09:52:48.373Z,3.01
2023-06-11T09:53:48.343Z,2.93
2023-06-11T09:54:48.353Z,2.90
2023-06-11T09:55:57.039Z,2.92
2023-06-11T09:56:49.369Z,2.93
2023-06-11T09:57:48.364Z,2.93
2023-06-11T09:58:48.370Z,2.93
2023-06-11T09:59:48.346Z,2.90
2023-06-11T10:00:48.353Z,2.92
2023-06-11T10:01:48.584Z,2.90
2023-06-11T10:02:48.358Z,2.91
2023-06-11T10:03:48.353Z,2.90
2023-06-11T10:04:48.317Z,2.89
2023-06-11T10:05:48.302Z,2.90
2023-06-11T10:06:48.281Z,2.87
2023-06-11T10:07:48.276Z,2.90
2023-06-11T10:08:48.282Z,2.85
2023-06-11T10:09:48.256Z,2.85
2023-06-11T10:10:48.274Z,2.85
2023-06-11T10:11:48.270Z,2.86
2023-06-11T10:12:48.239Z,2.89
2023-06-11T10:13:48.248Z,2.87
2023-06-11T10:14:48.221Z,2.88
2023-06-11T10:15:48.243Z,2.89
2023-06-11T10:16:48.218Z,2.90
2023-06-11T10:17:48.292Z,2.84
2023-06-11T10:18:48.192Z,2.86
2023-06-11T10:19:48.192Z,2.82
2023-06-11T10:20:48.189Z,2.86
2023-06-11T10:21:48.184Z,2.84
2023-06-11T10:22:48.169Z,2.84
2023-06-11T10:23:48.188Z,2.85
2023-06-11T10:24:48.170Z,2.83
2023-06-11T10:25:48.170Z,2.78
2023-06-11T10:26:48.201Z,2.82
2023-06-11T10:27:48.132Z,2.82
2023-06-11T10:28:48.136Z,2.77
2023-06-11T10:29:48.125Z,2.80
2023-06-11T10:30:48.123Z,2.78
2023-06-11T10:31:48.110Z,2.81
2023-06-11T10:32:48.143Z,2.75
2023-06-11T10:33:48.127Z,2.71
2023-06-11T10:34:48.219Z,2.75
2023-06-11T10:35:48.100Z,2.77
2023-06-11T10:36:48.073Z,2.79
2023-06-11T10:37:48.075Z,2.80
2023-06-11T10:38:48.076Z,2.78
2023-06-11T10:39:48.052Z,2.73
2023-06-11T10:40:48.054Z,2.77
2023-06-11T10:41:48.044Z,2.73
2023-06-11T10:42:48.047Z,2.76
2023-06-11T10:43:48.032Z,2.74
2023-06-11T10:44:48.033Z,2.76
2023-06-11T10:45:49.972Z,2.75
2023-06-11T10:46:48.062Z,2.71
2023-06-11T10:47:48.069Z,2.70
2023-06-11T10:48:48.036Z,2.72
2023-06-11T10:49:48.018Z,2.73
2023-06-11T10:50:48.029Z,2.65
2023-06-11T10:51:47.999Z,2.61
2023-06-11T10:52:48.026Z,2.56
2023-06-11T10:53:48.015Z,2.56
2023-06-11T10:54:47.998Z,2.60
2023-06-11T10:55:48.014Z,2.54
2023-06-11T10:56:47.991Z,2.60
2023-06-11T10:57:48.019Z,2.64
2023-06-11T10:58:48.004Z,2.60
2023-06-11T10:59:48.029Z,2.59
2023-06-11T11:00:48.071Z,2.57
2023-06-11T11:01:48.050Z,2.61
2023-06-11T11:02:48.048Z,2.58
2023-06-11T11:03:48.174Z,2.55
2023-06-11T11:04:47.972Z,2.56
2023-06-11T11:05:47.996Z,2.52
2023-06-11T11:06:47.987Z,2.56
2023-06-11T11:07:47.984Z,2.52
2023-06-11T11:08:47.994Z,2.52
2023-06-11T11:09:48.007Z,2.53
2023-06-11T11:10:48.004Z,2.45
2023-06-11T11:11:48.033Z,2.44
2023-06-11T11:12:48.066Z,2.44
2023-06-11T11:13:48.034Z,2.46
2023-06-11T11:14:48.051Z,2.43
2023-06-11T11:15:48.042Z,2.45
2023-06-11T11:16:48.082Z,2.38
2023-06-11T11:17:48.111Z,2.40
2023-06-11T11:18:48.068Z,2.41
2023-06-11T11:19:48.082Z,2.33
2023-06-11T11:20:48.069Z,2.31
2023-06-11T11:21:48.076Z,2.25
2023-06-11T11:22:48.074Z,2.25
2023-06-11T11:23:48.120Z,2.20
2023-06-11T11:24:48.099Z,2.13
2023-06-11T11:25:48.099Z,2.08
2023-06-11T11:26:48.098Z,2.05
2023-06-11T11:27:48.116Z,2.04
2023-06-11T11:28:48.091Z,2.05
2023-06-11T11:29:48.102Z,2.05
2023-06-11T11:30:48.120Z,2.04
2023-06-11T11:31:48.139Z,2.00
2023-06-11T11:32:48.169Z,1.95
2023-06-11T11:33:48.104Z,1.91
2023-06-11T11:34:48.119Z,1.89
2023-06-11T11:35:48.109Z,1.86
2023-06-11T11:36:48.099Z,1.79
2023-06-11T11:37:48.145Z,1.75
2023-06-11T11:38:48.112Z,1.74
2023-06-11T11:39:48.141Z,1.74
2023-06-11T11:40:48.141Z,1.68
2023-06-11T11:41:48.137Z,1.66
2023-06-11T11:42:48.135Z,1.58
2023-06-11T11:43:48.142Z,1.50
2023-06-11T11:44:48.143Z,1.38
2023-06-11T11:45:48.201Z,1.38
2023-06-11T11:46:48.198Z,1.42
2023-06-11T11:47:48.177Z,1.40
2023-06-11T11:48:48.147Z,1.37
2023-06-11T11:49:48.142Z,1.35
2023-06-11T11:50:48.144Z,1.36
2023-06-11T11:51:48.145Z,1.36
2023-06-11T11:52:48.116Z,1.32
2023-06-11T11:53:48.114Z,1.30
2023-06-11T11:54:48.101Z,1.26
2023-06-11T11:56:04.286Z,1.30
2023-06-11T11:56:49.108Z,1.30
2023-06-11T11:57:48.077Z,1.32
2023-06-11T11:58:48.066Z,1.32
2023-06-11T11:59:48.059Z,1.32
2023-06-11T12:00:48.079Z,1.31
2023-06-11T12:01:48.061Z,1.32
2023-06-11T12:02:48.184Z,1.21
2023-06-11T12:03:48.183Z,1.12
2023-06-11T12:04:49.148Z,1.15
2023-06-11T12:05:48.057Z,1.13
2023-06-11T12:06:48.008Z,1.11
2023-06-11T12:07:48.016Z,1.08
2023-06-11T12:08:48.024Z,1.06
2023-06-11T12:09:48.010Z,1.07
2023-06-11T12:10:48.020Z,0.99
2023-06-11T12:12:04.033Z,0.94
2023-06-11T12:12:48.971Z,0.81
2023-06-11T12:13:47.964Z,0.71
2023-06-11T12:14:47.954Z,0.72
2023-06-11T12:15:47.963Z,0.70
2023-06-11T12:16:47.968Z,0.68
2023-06-11T12:17:47.998Z,0.62
2023-06-11T12:18:47.982Z,0.67
2023-06-11T12:19:47.921Z,0.68
2023-06-11T12:20:47.996Z,0.68
2023-06-11T12:21:50.017Z,0.65
2023-06-11T12:22:47.901Z,0.62
2023-06-11T12:23:47.915Z,0.68
2023-06-11T12:24:47.909Z,0.56
2023-06-11T12:25:47.880Z,0.53
2023-06-11T12:26:47.887Z,0.63
2023-06-11T12:27:47.860Z,0.62
2023-06-11T12:28:47.882Z,0.60
2023-06-11T12:29:47.850Z,0.69
2023-06-11T12:30:47.862Z,0.62
2023-06-11T12:31:47.882Z,0.55
2023-06-11T12:32:47.892Z,0.50
2023-06-11T12:33:47.831Z,0.50
2023-06-11T12:34:47.859Z,0.50
2023-06-11T12:35:47.812Z,0.50
2023-06-11T12:36:47.937Z,0.50
2023-06-11T12:37:47.817Z,0.50
2023-06-11T12:38:47.812Z,0.54
2023-06-11T12:39:47.837Z,0.57
2023-06-11T12:40:47.789Z,0.51
2023-06-11T12:41:47.784Z,0.50
2023-06-11T12:42:47.765Z,0.50
2023-06-11T12:43:47.747Z,0.54
2023-06-11T12:44:47.753Z,0.50
2023-06-11T12:45:47.786Z,0.50
2023-06-11T12:46:47.824Z,0.59
2023-06-11T12:47:47.817Z,0.68
2023-06-11T12:48:47.744Z,0.74
2023-06-11T12:49:47.737Z,0.84
2023-06-11T12:50:47.721Z,0.82
2023-06-11T12:51:47.714Z,0.85
2023-06-11T12:52:47.716Z,0.91
2023-06-11T12:53:47.697Z,1.04
2023-06-11T12:54:47.685Z,1.03
2023-06-11T12:55:47.684Z,0.98
2023-06-11T12:56:47.685Z,0.96
2023-06-11T12:57:47.704Z,0.89
2023-06-11T12:58:47.726Z,0.94
2023-06-11T12:59:47.732Z,0.96
2023-06-11T13:00:47.742Z,0.99
2023-06-11T13:01:47.829Z,1.12
2023-06-11T13:02:47.862Z,1.28
2023-06-11T13:03:47.775Z,1.45
2023-06-11T13:04:47.821Z,1.53
2023-06-11T13:05:47.802Z,1.53
2023-06-11T13:06:47.830Z,1.32
2023-06-11T13:07:47.806Z,1.37
2023-06-11T13:08:47.837Z,1.36
2023-06-11T13:09:47.838Z,1.56
2023-06-11T13:10:47.859Z,1.40
2023-06-11T13:11:47.864Z,1.31
2023-06-11T13:12:47.867Z,1.36
2023-06-11T13:13:47.880Z,1.45
2023-06-11T13:14:47.889Z,1.45
2023-06-11T13:15:47.998Z,1.45
2023-06-11T13:16:47.905Z,1.41
2023-06-11T13:17:47.941Z,1.40
2023-06-11T13:18:47.922Z,1.44